createdAt,value
2018-06-12T00:01:19.148Z,65.70
2018-06-12T00:03:47.797Z,63.72
2018-06-12T00:06:16.443Z,63.93
2018-06-12T00:08:45.087Z,64.31
2018-06-12T00:11:13.733Z,64.96
2018-06-12T00:13:42.459Z,66.16
2018-06-12T00:16:11.183Z,65.31
2018-06-12T00:18:40.992Z,64.65
2018-06-12T00:21:09.693Z,63.00
2018-06-12T00:23:38.409Z,63.73
2018-06-12T00:26:07.104Z,64.05
2018-06-12T00:28:35.726Z,63.04
2018-06-12T00:31:04.459Z,62.82
2018-06-12T00:33:33.032Z,62.82
2018-06-12T00:36:01.679Z,63.44
2018-06-12T00:38:30.386Z,65.43
2018-06-12T00:40:58.974Z,65.35
2018-06-12T00:43:27.661Z,64.01
2018-06-12T00:45:56.406Z,64.56
2018-06-12T00:48:25.116Z,66.84
2018-06-12T00:50:53.877Z,65.10
2018-06-12T00:53:22.648Z,64.33
2018-06-12T00:55:51.335Z,63.81
2018-06-12T00:58:20.040Z,65.41
2018-06-12T01:00:48.727Z,64.34
2018-06-12T01:03:17.339Z,65.76
2018-06-12T01:05:46.225Z,65.99
2018-06-12T01:08:14.958Z,64.31
2018-06-12T01:10:43.853Z,63.95
2018-06-12T01:13:12.547Z,63.52
2018-06-12T01:15:41.166Z,62.48
2018-06-12T01:18:09.879Z,63.45
2018-06-12T01:20:38.684Z,62.78
2018-06-12T01:23:07.358Z,63.11
2018-06-12T01:25:36.050Z,62.37
2018-06-12T01:28:04.845Z,62.46
2018-06-12T01:30:33.507Z,61.90
2018-06-12T01:33:02.199Z,63.69
2018-06-12T01:35:30.888Z,64.52
2018-06-12T01:37:59.623Z,63.16
2018-06-12T01:40:28.274Z,63.98
2018-06-12T01:42:57.016Z,63.37
2018-06-12T01:45:25.775Z,64.02
2018-06-12T01:47:54.521Z,62.74
2018-06-12T01:50:23.267Z,63.87
2018-06-12T01:52:51.975Z,64.21
2018-06-12T01:55:20.649Z,63.09
2018-06-12T01:57:49.392Z,63.75
2018-06-12T02:00:18.062Z,64.17
2018-06-12T02:02:46.680Z,65.28
2018-06-12T02:05:15.390Z,65.87
2018-06-12T02:07:44.103Z,65.37
2018-06-12T02:10:12.741Z,65.97
2018-06-12T02:12:41.385Z,65.25
2018-06-12T02:15:10.110Z,65.27
2018-06-12T02:17:38.820Z,66.56
2018-06-12T02:20:07.523Z,67.51
2018-06-12T02:22:36.156Z,66.99
2018-06-12T02:25:04.929Z,66.41
2018-06-12T02:27:33.553Z,65.35
2018-06-12T02:30:02.227Z,65.96
2018-06-12T02:32:30.944Z,65.38
2018-06-12T02:34:59.737Z,65.61
2018-06-12T02:37:28.380Z,64.58
2018-06-12T02:39:57.035Z,63.93
2018-06-12T02:42:25.882Z,64.57
2018-06-12T02:44:54.541Z,63.33
2018-06-12T02:47:23.275Z,63.80
2018-06-12T02:49:51.963Z,63.99
2018-06-12T02:52:20.774Z,63.56
2018-06-12T02:54:49.549Z,62.14
2018-06-12T02:57:18.203Z,61.96
2018-06-12T02:59:46.936Z,62.62
2018-06-12T03:02:15.546Z,63.98
2018-06-12T03:04:44.181Z,64.27
2018-06-12T03:07:12.814Z,63.85
2018-06-12T03:09:41.403Z,63.10
2018-06-12T03:12:10.037Z,61.43
2018-06-12T03:14:39.898Z,63.34
2018-06-12T03:17:08.619Z,65.73
2018-06-12T03:19:37.370Z,65.21
2018-06-12T03:22:06.056Z,65.07
2018-06-12T03:24:34.732Z,65.62
2018-06-12T03:27:03.392Z,63.77
2018-06-12T03:29:32.098Z,62.72
2018-06-12T03:32:00.782Z,62.15
2018-06-12T03:34:29.476Z,62.76
2018-06-12T03:36:58.119Z,62.04
2018-06-12T03:39:26.834Z,60.54
2018-06-12T03:41:55.529Z,60.38
2018-06-12T03:44:24.299Z,59.97
2018-06-12T03:46:52.994Z,60.06
2018-06-12T03:49:21.658Z,62.17
2018-06-12T03:51:50.415Z,61.80
2018-06-12T03:54:19.014Z,61.88
2018-06-12T03:56:47.762Z,62.11
2018-06-12T03:59:16.393Z,62.69
2018-06-12T04:01:45.014Z,61.70
2018-06-12T04:04:13.799Z,62.18
2018-06-12T04:06:42.436Z,61.42
2018-06-12T04:09:11.233Z,62.06
2018-06-12T04:11:39.983Z,61.05
2018-06-12T04:14:08.627Z,61.74
2018-06-12T04:16:37.630Z,63.35
2018-06-12T04:19:07.428Z,63.83
2018-06-12T04:21:36.462Z,62.54
2018-06-12T04:24:05.200Z,62.18
2018-06-12T04:26:33.975Z,62.43
2018-06-12T04:29:02.751Z,62.89
2018-06-12T04:31:31.439Z,62.53
2018-06-12T04:34:01.253Z,62.21
2018-06-12T04:36:29.983Z,61.80
2018-06-12T04:38:58.731Z,61.65
2018-06-12T04:41:27.552Z,61.36
2018-06-12T04:43:56.289Z,61.01
2018-06-12T04:46:24.968Z,60.84
2018-06-12T04:48:53.591Z,61.96
2018-06-12T04:51:22.231Z,60.37
2018-06-12T04:53:50.881Z,58.59
2018-06-12T04:56:19.642Z,59.02
2018-06-12T04:58:48.458Z,58.18
2018-06-12T05:01:17.963Z,58.80
2018-06-12T05:03:46.844Z,58.42
2018-06-12T05:06:15.683Z,57.44
2018-06-12T05:08:44.620Z,58.18
2018-06-12T05:11:13.392Z,58.28
2018-06-12T05:13:42.133Z,58.48
2018-06-12T05:16:10.810Z,57.99
2018-06-12T05:18:39.577Z,59.89
2018-06-12T05:21:08.275Z,58.77
2018-06-12T05:23:37.035Z,57.04
2018-06-12T05:26:05.719Z,58.85
2018-06-12T05:28:34.350Z,57.84
2018-06-12T05:31:03.279Z,58.30
2018-06-12T05:33:32.121Z,60.15
2018-06-12T05:36:00.889Z,59.50
2018-06-12T05:38:29.641Z,59.82
2018-06-12T05:40:58.341Z,57.13
2018-06-12T05:43:27.084Z,56.86
2018-06-12T05:45:55.888Z,56.96
2018-06-12T05:48:24.460Z,55.61
2018-06-12T05:50:53.073Z,56.41
2018-06-12T05:53:21.758Z,55.85
2018-06-12T05:55:50.559Z,56.67
2018-06-12T05:58:19.316Z,58.46
2018-06-12T06:00:47.939Z,57.08
2018-06-12T06:03:16.659Z,58.12
2018-06-12T06:05:45.385Z,58.67
2018-06-12T06:08:14.025Z,60.23
2018-06-12T06:10:42.790Z,59.67
2018-06-12T06:13:11.561Z,60.42
2018-06-12T06:15:40.225Z,61.18
2018-06-12T06:18:08.844Z,60.60
2018-06-12T06:20:37.594Z,60.46
2018-06-12T06:23:06.324Z,59.22
2018-06-12T06:25:35.124Z,59.05
2018-06-12T06:28:03.788Z,58.97
2018-06-12T06:30:32.482Z,59.31
2018-06-12T06:33:01.111Z,57.81
2018-06-12T06:35:29.771Z,58.04
2018-06-12T06:37:59.319Z,55.36
2018-06-12T06:40:28.049Z,55.97
2018-06-12T06:42:56.724Z,57.19
2018-06-12T06:45:25.353Z,58.08
2018-06-12T06:47:54.131Z,57.73
2018-06-12T06:50:22.893Z,57.67
2018-06-12T06:52:51.769Z,55.71
2018-06-12T06:55:20.460Z,55.40
2018-06-12T06:57:49.159Z,55.50
2018-06-12T07:00:17.821Z,55.96
2018-06-12T07:02:46.603Z,56.43
2018-06-12T07:05:15.422Z,57.01
2018-06-12T07:07:44.235Z,58.18
2018-06-12T07:10:13.065Z,57.07
2018-06-12T07:12:41.805Z,57.83
2018-06-12T07:15:10.610Z,56.77
2018-06-12T07:17:39.224Z,57.31
2018-06-12T07:20:07.938Z,57.35
2018-06-12T07:22:36.624Z,55.77
2018-06-12T07:25:05.442Z,55.25
2018-06-12T07:27:34.193Z,55.76
2018-06-12T07:30:03.012Z,56.10
2018-06-12T07:32:31.681Z,55.33
2018-06-12T07:35:00.359Z,55.18
2018-06-12T07:37:29.104Z,53.44
2018-06-12T07:39:57.658Z,53.96
2018-06-12T07:42:26.289Z,54.97
2018-06-12T07:44:55.050Z,53.26
2018-06-12T07:47:23.780Z,54.04
2018-06-12T07:49:52.543Z,54.18
2018-06-12T07:52:21.285Z,54.64
2018-06-12T07:54:50.018Z,53.14
2018-06-12T07:57:18.752Z,52.36
2018-06-12T07:59:47.557Z,52.44
2018-06-12T08:02:16.230Z,52.62
2018-06-12T08:04:44.927Z,51.78
2018-06-12T08:07:13.584Z,52.31
2018-06-12T08:09:42.279Z,52.90
2018-06-12T08:12:10.953Z,53.25
2018-06-12T08:14:39.641Z,52.77
2018-06-12T08:17:08.365Z,54.46
2018-06-12T08:19:37.019Z,53.71
2018-06-12T08:22:05.782Z,51.21
2018-06-12T08:24:34.461Z,50.53
2018-06-12T08:27:03.181Z,52.34
2018-06-12T08:29:31.878Z,52.52
2018-06-12T08:32:00.571Z,52.79
2018-06-12T08:34:29.267Z,52.93
2018-06-12T08:36:57.891Z,52.78
2018-06-12T08:39:26.549Z,52.01
2018-06-12T08:41:55.334Z,52.19
2018-06-12T08:44:24.072Z,53.07
2018-06-12T08:46:52.856Z,51.60
2018-06-12T08:49:21.519Z,51.09
2018-06-12T08:51:50.212Z,49.51
2018-06-12T08:54:18.824Z,50.50
2018-06-12T08:56:47.511Z,51.47
2018-06-12T08:59:16.238Z,50.57
2018-06-12T09:01:44.852Z,50.35
2018-06-12T09:04:13.493Z,50.25
2018-06-12T09:06:42.210Z,48.98
2018-06-12T09:09:10.933Z,46.35
2018-06-12T09:11:39.640Z,45.36
2018-06-12T09:14:08.357Z,44.15
2018-06-12T09:16:37.098Z,45.45
2018-06-12T09:19:06.138Z,43.24
2018-06-12T09:21:34.904Z,46.06
2018-06-12T09:24:03.703Z,42.39
2018-06-12T09:26:32.351Z,44.72
2018-06-12T09:29:01.040Z,43.32
2018-06-12T09:31:29.768Z,42.26
2018-06-12T09:33:58.441Z,43.19
2018-06-12T09:36:32.321Z,42.26
2018-06-12T09:39:01.053Z,42.18
2018-06-12T09:41:29.687Z,43.03
2018-06-12T09:43:58.361Z,43.59
2018-06-12T09:46:27.158Z,43.53
2018-06-12T09:48:55.881Z,43.39
2018-06-12T09:51:24.561Z,43.73
2018-06-12T09:53:53.269Z,41.29
2018-06-12T09:56:21.968Z,38.83
2018-06-12T09:58:50.650Z,39.47
2018-06-12T10:01:22.321Z,40.27
2018-06-12T10:03:53.001Z,40.45
2018-06-12T10:06:21.700Z,40.18
2018-06-12T10:08:50.958Z,42.18
2018-06-12T10:11:19.568Z,41.02
2018-06-12T10:13:48.246Z,42.43
2018-06-12T10:16:16.891Z,41.79
2018-06-12T10:18:45.671Z,39.25
2018-06-12T10:21:14.695Z,39.04
2018-06-12T10:23:43.353Z,38.51
2018-06-12T10:26:12.113Z,36.79
2018-06-12T10:28:40.948Z,39.14
2018-06-12T10:31:09.769Z,37.76
2018-06-12T10:33:38.479Z,36.37
2018-06-12T10:36:07.463Z,37.09
2018-06-12T10:38:36.146Z,35.77
2018-06-12T10:41:04.773Z,36.08
2018-06-12T10:43:33.427Z,35.29
2018-06-12T10:46:02.115Z,34.26
2018-06-12T10:48:30.856Z,33.85
2018-06-12T10:50:59.468Z,32.78
2018-06-12T10:53:28.108Z,34.91
2018-06-12T10:55:56.772Z,35.61
2018-06-12T10:58:25.559Z,34.18
2018-06-12T11:00:54.454Z,35.10
2018-06-12T11:03:23.176Z,34.49
2018-06-12T11:05:52.257Z,33.92
2018-06-12T11:08:21.014Z,36.87
2018-06-12T11:10:50.111Z,35.57
2018-06-12T11:13:19.138Z,37.64
2018-06-12T11:15:47.812Z,40.79
2018-06-12T11:18:18.493Z,49.17
2018-06-12T11:20:47.168Z,52.35
2018-06-12T11:23:17.636Z,52.97
2018-06-12T11:25:46.463Z,54.10
2018-06-12T11:28:15.255Z,55.81
2018-06-12T11:30:43.953Z,56.10
2018-06-12T11:33:12.720Z,61.74
2018-06-12T11:35:41.483Z,65.60
2018-06-12T11:38:10.141Z,66.09
2018-06-12T11:40:38.927Z,67.03
2018-06-12T11:43:07.617Z,67.54
2018-06-12T11:48:09.409Z,70.89
2018-06-12T11:50:38.149Z,72.11
2018-06-12T11:53:06.796Z,73.36
2018-06-12T11:55:35.594Z,78.52
2018-06-12T11:58:04.305Z,88.64
2018-06-12T12:00:32.975Z,93.13
2018-06-12T12:03:01.805Z,90.39
2018-06-12T12:05:30.887Z,90.19
2018-06-12T12:07:59.548Z,90.29
2018-06-12T12:10:28.371Z,89.98
2018-06-12T12:12:57.097Z,89.83
2018-06-12T12:15:25.962Z,90.18
2018-06-12T12:17:57.420Z,93.72
2018-06-12T12:20:26.362Z,96.63
2018-06-12T12:22:55.083Z,97.18
2018-06-12T12:25:24.101Z,96.37
2018-06-12T12:27:53.097Z,96.96
2018-06-12T12:30:23.399Z,97.19
2018-06-12T12:32:52.296Z,95.13
2018-06-12T12:35:21.101Z,94.31
2018-06-12T12:37:50.160Z,93.99
2018-06-12T12:40:18.924Z,94.95
2018-06-12T12:42:47.868Z,94.81
2018-06-12T12:45:17.021Z,93.96
2018-06-12T12:47:46.156Z,93.68
2018-06-12T12:50:15.213Z,92.92
2018-06-12T12:52:44.109Z,92.28
2018-06-12T12:55:13.111Z,91.55
2018-06-12T12:57:43.078Z,90.15
2018-06-12T13:00:12.288Z,88.10
2018-06-12T13:02:41.208Z,88.52
2018-06-12T13:05:09.973Z,90.31
2018-06-12T13:07:38.848Z,90.20
2018-06-12T13:10:07.727Z,89.60
2018-06-12T13:12:36.692Z,90.22
2018-06-12T13:15:05.650Z,88.41
2018-06-12T13:17:34.516Z,88.47
2018-06-12T13:20:03.251Z,89.85
2018-06-12T13:22:31.962Z,88.97
2018-06-12T13:25:00.703Z,88.97
2018-06-12T13:27:29.466Z,87.54
2018-06-12T13:29:58.335Z,87.11
2018-06-12T13:32:27.224Z,85.38
2018-06-12T13:34:56.066Z,82.28
2018-06-12T13:37:25.904Z,83.09
2018-06-12T13:39:54.840Z,84.35
2018-06-12T13:42:23.557Z,82.61
2018-06-12T13:44:52.557Z,84.11
2018-06-12T13:47:21.413Z,82.16
2018-06-12T13:49:50.212Z,83.36
2018-06-12T13:52:19.371Z,82.64
2018-06-12T14:00:46.713Z,82.58
2018-06-12T14:03:18.147Z,82.53
2018-06-12T14:05:48.777Z,81.58
2018-06-12T14:08:19.545Z,79.12
2018-06-12T14:10:49.318Z,80.71
2018-06-12T14:13:19.541Z,79.86
2018-06-12T14:15:51.198Z,79.97
2018-06-12T14:18:20.856Z,78.84
2018-06-12T14:20:52.194Z,81.18
2018-06-12T14:23:21.900Z,77.62
2018-06-12T14:25:52.531Z,80.80
2018-06-12T14:28:22.984Z,80.68
2018-06-12T14:30:52.754Z,79.07
2018-06-12T14:33:22.472Z,83.99
2018-06-12T14:35:53.357Z,78.42
2018-06-12T14:38:25.278Z,79.70
2018-06-12T14:40:55.885Z,80.29
2018-06-12T14:43:25.897Z,79.86
2018-06-12T14:45:54.861Z,78.75
2018-06-12T14:48:23.919Z,78.78
2018-06-12T14:50:52.673Z,76.55
2018-06-12T14:53:21.487Z,76.89
2018-06-12T14:55:50.347Z,76.31
2018-06-12T14:58:19.323Z,76.90
2018-06-12T15:00:48.222Z,74.35
2018-06-12T15:03:16.849Z,74.31
2018-06-12T15:05:45.552Z,72.93
2018-06-12T15:08:14.555Z,72.46
2018-06-12T15:10:43.406Z,72.47
2018-06-12T15:13:12.213Z,69.70
2018-06-12T15:15:41.045Z,69.80
2018-06-12T15:18:10.078Z,66.88
2018-06-12T15:20:38.870Z,67.61
2018-06-12T15:23:07.592Z,64.75
2018-06-12T15:25:36.427Z,65.48
2018-06-12T15:28:05.099Z,61.69
2018-06-12T15:30:33.897Z,62.45
2018-06-12T15:33:02.632Z,62.49
2018-06-12T15:35:31.405Z,62.26
2018-06-12T15:38:00.177Z,61.37
2018-06-12T15:40:28.988Z,61.94
2018-06-12T15:42:57.732Z,58.05
2018-06-12T15:45:26.582Z,57.59
2018-06-12T15:47:55.252Z,61.63
2018-06-12T15:50:24.159Z,60.20
2018-06-12T15:52:52.930Z,59.94
2018-06-12T15:55:21.662Z,59.94
2018-06-12T15:57:50.482Z,59.81
2018-06-12T16:00:19.202Z,59.86
2018-06-12T16:02:47.937Z,59.91
2018-06-12T16:05:17.086Z,62.98
2018-06-12T16:07:45.784Z,63.96
2018-06-12T16:10:14.583Z,64.42
2018-06-12T16:12:43.305Z,59.23
2018-06-12T16:15:12.166Z,60.42
2018-06-12T16:17:41.022Z,63.10
2018-06-12T16:20:09.807Z,59.63
2018-06-12T16:22:38.483Z,63.86
2018-06-12T16:25:07.231Z,65.97
2018-06-12T16:27:36.026Z,60.42
2018-06-12T16:30:04.987Z,60.29
2018-06-12T16:32:33.697Z,55.24
2018-06-12T16:35:02.594Z,54.94
2018-06-12T16:37:31.391Z,55.92
2018-06-12T16:40:00.125Z,50.60
2018-06-12T16:42:28.758Z,50.54
2018-06-12T16:44:57.461Z,50.28
2018-06-12T16:47:26.347Z,48.59
2018-06-12T16:49:55.033Z,49.39
2018-06-12T16:52:23.691Z,48.39
2018-06-12T16:54:52.400Z,47.69
2018-06-12T16:57:21.179Z,51.69
2018-06-12T16:59:49.981Z,51.76
2018-06-12T17:02:18.639Z,53.91
2018-06-12T17:04:47.289Z,54.48
2018-06-12T17:07:16.228Z,53.43
2018-06-12T17:09:45.025Z,54.16
2018-06-12T17:12:13.833Z,54.90
2018-06-12T17:14:42.748Z,53.47
2018-06-12T17:17:11.480Z,55.30
2018-06-12T17:19:40.258Z,55.71
2018-06-12T17:22:10.188Z,55.51
2018-06-12T17:24:39.120Z,56.09
2018-06-12T17:27:07.888Z,55.40
2018-06-12T17:29:36.664Z,55.60
2018-06-12T17:32:05.408Z,55.36
2018-06-12T17:34:34.015Z,56.00
2018-06-12T17:37:02.749Z,55.63
2018-06-12T17:39:31.738Z,57.20
2018-06-12T17:42:00.586Z,57.58
2018-06-12T17:44:30.276Z,58.65
2018-06-12T17:46:58.929Z,58.71
2018-06-12T17:49:27.543Z,57.99
2018-06-12T17:51:56.410Z,58.77
2018-06-12T17:54:25.095Z,58.81
2018-06-12T17:56:53.902Z,59.47
2018-06-12T17:59:22.541Z,59.83
2018-06-12T18:01:51.194Z,61.63
2018-06-12T18:04:19.897Z,64.50
2018-06-12T18:06:48.524Z,64.83
2018-06-12T18:09:17.139Z,64.99
2018-06-12T18:11:45.861Z,65.34
2018-06-12T18:14:14.618Z,79.57
2018-06-12T18:16:43.270Z,88.87
2018-06-12T18:19:11.888Z,87.11
2018-06-12T18:21:40.623Z,88.25
2018-06-12T18:24:09.287Z,85.31
2018-06-12T18:26:38.056Z,85.34
2018-06-12T18:29:06.831Z,83.98
2018-06-12T18:31:35.720Z,83.32
2018-06-12T18:34:04.555Z,81.56
2018-06-12T18:36:33.358Z,81.58
2018-06-12T18:39:02.128Z,79.40
2018-06-12T18:41:30.745Z,78.29
2018-06-12T18:43:59.378Z,79.05
2018-06-12T18:46:28.150Z,78.53
2018-06-12T18:48:57.082Z,78.53
2018-06-12T18:51:25.956Z,78.69
2018-06-12T18:53:54.670Z,78.60
2018-06-12T18:56:23.496Z,77.76
2018-06-12T18:58:52.161Z,79.23
2018-06-12T19:01:20.985Z,78.61
2018-06-12T19:03:49.695Z,80.25
2018-06-12T19:06:18.486Z,78.54
2018-06-12T19:08:47.442Z,79.45
2018-06-12T19:11:16.973Z,78.31
2018-06-12T19:13:46.779Z,78.39
2018-06-12T19:16:15.541Z,78.75
2018-06-12T19:18:44.219Z,78.21
2018-06-12T19:21:13.052Z,77.34
2018-06-12T19:23:42.096Z,77.71
2018-06-12T19:26:11.773Z,78.07
2018-06-12T19:28:40.804Z,78.02
2018-06-12T19:31:10.026Z,77.39
2018-06-12T19:33:38.904Z,78.35
2018-06-12T19:36:07.769Z,77.10
2018-06-12T19:38:36.638Z,77.08
2018-06-12T19:41:05.520Z,77.63
2018-06-12T19:43:34.244Z,77.70
2018-06-12T19:46:03.120Z,78.38
2018-06-12T19:48:32.073Z,77.96
2018-06-12T19:51:01.258Z,76.42
2018-06-12T19:53:29.970Z,76.40
2018-06-12T19:55:58.814Z,77.23
2018-06-12T19:58:27.790Z,77.31
2018-06-12T20:00:56.707Z,76.98
2018-06-12T20:03:25.720Z,76.54
2018-06-12T20:05:54.748Z,77.29
2018-06-12T20:08:23.673Z,75.02
2018-06-12T20:10:52.663Z,75.87
2018-06-12T20:13:21.557Z,75.39
2018-06-12T20:15:50.463Z,76.25
2018-06-12T20:18:19.252Z,77.04
2018-06-12T20:20:48.060Z,77.22
2018-06-12T20:23:16.748Z,77.25
2018-06-12T20:25:45.605Z,76.69
2018-06-12T20:28:14.367Z,77.85
2018-06-12T20:30:43.156Z,78.47
2018-06-12T20:33:12.071Z,77.62
2018-06-12T20:35:40.977Z,78.17
2018-06-12T20:38:09.837Z,79.59
2018-06-12T20:40:38.731Z,78.89
2018-06-12T20:43:07.710Z,79.18
2018-06-12T20:45:36.613Z,78.64
2018-06-12T20:48:05.493Z,78.87
2018-06-12T20:50:34.225Z,79.37
2018-06-12T20:53:03.022Z,79.53
2018-06-12T20:55:31.880Z,80.27
2018-06-12T20:58:00.735Z,79.10
2018-06-12T21:00:29.494Z,80.11
2018-06-12T21:02:58.246Z,80.24
2018-06-12T21:05:27.327Z,78.56
2018-06-12T21:07:56.173Z,77.51
2018-06-12T21:10:24.950Z,79.56
2018-06-12T21:12:53.839Z,77.75
2018-06-12T21:15:22.443Z,76.82
2018-06-12T21:17:51.210Z,74.15
2018-06-12T21:20:19.834Z,76.00
2018-06-12T21:22:48.473Z,74.89
2018-06-12T21:25:17.091Z,74.75
2018-06-12T21:27:45.802Z,76.48
2018-06-12T21:30:14.503Z,75.74
2018-06-12T21:32:43.173Z,74.84
2018-06-12T21:35:11.891Z,76.74
2018-06-12T21:37:40.652Z,77.31
2018-06-12T21:40:09.270Z,75.46
2018-06-12T21:42:38.021Z,75.41
2018-06-12T21:45:06.873Z,75.78
2018-06-12T21:47:35.542Z,74.67
2018-06-12T21:50:04.391Z,75.07
2018-06-12T21:52:33.098Z,75.23
2018-06-12T21:55:01.710Z,74.12
2018-06-12T21:57:30.370Z,74.22
2018-06-12T21:59:59.029Z,76.49
2018-06-12T22:02:27.832Z,75.95
2018-06-12T22:04:56.573Z,75.70
2018-06-12T22:07:25.574Z,73.82
2018-06-12T22:09:54.333Z,74.07
2018-06-12T22:12:23.246Z,74.80
2018-06-12T22:14:52.015Z,73.92
2018-06-12T22:17:20.679Z,73.50
2018-06-12T22:19:49.264Z,73.06
2018-06-12T22:22:17.989Z,73.06
2018-06-12T22:24:46.671Z,74.94
2018-06-12T22:27:15.337Z,72.91
2018-06-12T22:29:44.033Z,73.37
2018-06-12T22:32:12.668Z,74.58
2018-06-12T22:34:41.331Z,74.64
2018-06-12T22:37:10.205Z,72.71
2018-06-12T22:39:39.120Z,74.10
2018-06-12T22:42:08.005Z,73.65
2018-06-12T22:44:36.734Z,75.69
2018-06-12T22:47:05.732Z,76.34
2018-06-12T22:49:34.545Z,76.05
2018-06-12T22:52:03.254Z,73.22
2018-06-12T22:54:32.073Z,73.69
2018-06-12T22:57:00.630Z,74.39
2018-06-12T22:59:29.349Z,73.78
2018-06-12T23:01:58.029Z,74.51
2018-06-12T23:04:26.690Z,75.95
2018-06-12T23:06:55.371Z,75.45
2018-06-12T23:09:24.000Z,74.89
2018-06-12T23:11:52.743Z,75.00
2018-06-12T23:14:21.445Z,75.17
2018-06-12T23:16:50.184Z,73.88
2018-06-12T23:19:18.910Z,73.25
2018-06-12T23:22:03.058Z,73.33
2018-06-12T23:24:31.775Z,79.01
2018-06-12T23:27:00.394Z,76.44
2018-06-12T23:29:29.111Z,74.22
2018-06-12T23:31:57.766Z,73.90
2018-06-12T23:34:26.464Z,72.58
2018-06-12T23:36:55.295Z,76.42
2018-06-12T23:39:24.079Z,75.12
2018-06-12T23:41:52.799Z,74.38
2018-06-12T23:44:21.435Z,73.81
2018-06-12T23:46:50.221Z,73.02
2018-06-12T23:49:18.958Z,73.64
2018-06-12T23:51:47.837Z,71.42
2018-06-12T23:54:16.654Z,72.09
2018-06-12T23:56:45.424Z,74.06
2018-06-12T23:59:14.174Z,75.43
